Pioche, Nevada Weather observations

Data are for observation ending at time listed.
 Day   Time    Ave.   Ave.  Ave.  Vector   Max.   Stn.    Total    Solar   Ave.  
  of    of     Air    Rel.  Wind   Wind    Wind   Baro.  Precip.   Rad.    Soil  
Year   Day     Temp.  Hum.  Speed  Dir.    Gust   Pres.                    Temp. 
2016   (PST)    F      %     mph   deg.    mph     mb.     in.     W/m2     F   
------------------------------------------------------------------------------
 343    4:00   21.5    58    3.3   297      5.3   805.2    0.00       0    35.6
 343    4:10   21.4    57    3.4   285      6.5   805.4    0.00       0    35.6
 343    4:20   21.3    57    3.3   320      4.9   805.1    0.00       0    35.6
 343    4:30   21.0    58    2.6   285      4.8   805.1    0.00       0    35.6
 343    4:40   20.9    57    1.4   310      3.0   804.9    0.00       0    35.6
 343    4:50   20.7    58    2.3   284      4.8   805.1    0.00       0    35.6
 343    5:00   21.1    57    2.0   238      3.7   805.2    0.00       0    35.5
 343    5:10   21.8    55    0.6    89      3.1   804.9    0.00       0    35.5
 343    5:20   21.8    55    1.9   291      3.9   805.1    0.00       0    35.5
 343    5:30   21.2    55    1.8   302      3.4   805.1    0.00       0    35.5
 343    5:40   21.1    56    1.5   263      3.4   805.3    0.00       0    35.5
 343    5:50   21.1    55    1.2   265      3.6   805.2    0.00       0    35.5
 343    6:00   20.7    56    0.5   144      1.7   805.1    0.00       0    35.5
 343    6:10   20.6    56    0.8   157      2.0   805.2    0.00       0    35.4
 343    6:20   19.8    58    0.7   211      1.9   805.4    0.00       0    35.4
 343    6:30   19.9    58    0.6   268      1.6   805.5    0.00       0    35.4
 343    6:40   20.5    58    1.8   285      3.1   805.6    0.00       3    35.3
 343    6:50   20.9    58    1.0   283      3.3   805.7    0.00       4    35.3
 343    7:00   21.5    56    0.8   193      2.0   805.6    0.00       9    35.3
 343    7:10   21.8    56    1.0   263      2.2   805.9    0.00      13    35.3
 343    7:20   22.3    54    0.7   175      1.9   805.9    0.00      39    35.3
 343    7:30   23.2    52    0.6    74      2.8   805.8    0.00      48    35.3
 343    7:40   22.9    54    1.7    97      3.1   805.8    0.00      78    35.3
 343    7:50   24.2    52    0.6    74      2.0   805.9    0.00      94    35.3
 343    8:00   24.1    52    1.2   319      3.0   805.8    0.00      75    35.3
 343    8:10   24.1    53    1.2   306      3.4   805.9    0.00      96    35.3
 343    8:20   24.6    50    2.9    75      5.6   805.8    0.00     103    35.2
 343    8:30   25.4    48    2.0    79      3.7   805.9    0.00     135    35.2
 343    8:40   25.9    49    2.4   352      4.9   806.2    0.00     132    35.2
 343    8:50   25.6    50    1.3   340      4.5   806.4    0.00     169    35.2
 343    9:00   26.3    48    1.1    73      3.9   806.4    0.00     163    35.3
 343    9:10   27.2    46    0.9    68      3.7   806.4    0.00     192    35.2
 343    9:20   27.6    44    5.1    71      7.8   806.3    0.00     315    35.2
 343    9:30   29.4    40    3.0    72      5.7   806.4    0.00     299    35.2
 343    9:40   29.1    40    3.7    72      7.3   806.3    0.00     303    35.3
 343    9:50   30.6    36    2.9    82      6.2   806.1    0.00     242    35.2
 343   10:00   31.7    32    2.4   132      6.3   806.0    0.00     225    35.2
 343   10:10   31.3    31    3.1   118      7.7   805.8    0.00     205    35.2
 343   10:20   31.5    30    3.3   130      5.4   805.9    0.00     188    35.2
 343   10:30   31.9    30    4.9   119      8.2   805.6    0.00     191    35.2
 343   10:40   32.2    30    4.5   118     10.1   805.6    0.00     248    35.2
 343   10:50   32.6    30    6.2   112     11.5   805.5    0.00     286    35.2
 343   11:00   33.1    29    5.0   114      9.1   805.5    0.00     383    35.2
 343   11:10   34.1    28    4.8   136     14.0   805.4    0.00     367    35.3
 343   11:20   33.9    28    6.4   130     12.0   805.4    0.00     459    35.3
 343   11:30   34.5    28    6.6   120     12.7   805.4    0.00     352    35.3
 343   11:40   34.5    28    6.5   144     14.8   805.2    0.00     310    35.3
 343   11:50   34.7    28    7.1   141     15.2   805.1    0.00     245    35.3
 343   12:00   34.8    28    6.3   136     12.9   805.1    0.00     367    35.3
 343   12:10   35.9    27    8.3   155     18.0   805.1    0.00     515    35.3
 343   12:20   36.4    26    9.9   154     18.3   804.9    0.00     466    35.3
 343   12:30   36.9    26    8.2   148     14.0   804.8    0.00     548    35.4
 343   12:40   37.1    26    8.8   135     15.8   804.7    0.00     526    35.4
 343   12:50   37.3    25   10.9   140     15.9   804.8    0.00     482    35.4
 343   13:00   38.2    24    9.0   137     17.6   804.8    0.00     516    35.5
 343   13:10   38.9    23    9.7   150     18.3   804.8    0.00     514    35.5
 343   13:20   39.1    22    7.2   154     15.3   804.9    0.00     373    35.5
 343   13:30   38.4    22   10.1   147     18.0   804.7    0.00     146    35.6
 343   13:40   38.2    22    9.7   145     16.1   804.6    0.00     192    35.7
 343   13:50   38.9    22   10.1   144     16.4   804.6    0.00     309    35.7
 343   14:00   39.5    22    9.4   150     15.5   804.7    0.00     380    35.8
 343   14:10   40.4    22   11.8   138     19.6   804.7    0.00     448    35.8
 343   14:20   40.2    22   11.8   139     19.4   804.8    0.00     329    35.9
 343   14:30   40.2    23   10.4   150     19.1   804.8    0.00     309    36.0
 343   14:40   40.5    23    8.7   154     17.8   804.9    0.00     282    36.1
 343   14:50   40.5    23   10.2   144     16.3   805.1    0.00     340    36.1
 343   15:00   40.2    23   10.0   148     17.0   805.1    0.00     243    36.2
 343   15:10   39.8    24    8.9   150     17.0   805.0    0.00     169    36.2
 343   15:20   39.2    24    9.1   147     16.3   805.0    0.00      79    36.4
 343   15:30   39.0    24    9.7   145     16.4   805.1    0.00      47    36.5
 343   15:40   38.9    25    7.6   143     13.6   805.1    0.00      23    36.5
 343   15:50   38.8    25    9.2   141     16.1   805.2    0.00      29    36.6
 343   16:00   38.7    25    9.5   132     18.4   805.3    0.00      28    36.6
 343   16:10   38.4    26   10.2   143     16.5   805.4    0.00      13    36.6
 343   16:20   38.2    26    8.7   151     15.6   805.4    0.00       6    36.7
 343   16:30   38.2    26   10.3   149     15.4   805.3    0.00       4    36.7
 343   16:40   37.8    26    8.6   152     15.9   805.2    0.00       1    36.8
 343   16:50   37.2    26    8.1   162     14.0   805.2    0.00       0    36.9
 343   17:00   36.8    26    9.0   154     14.5   805.3    0.00       0    36.9
 343   17:10   36.9    27    9.1   154     17.1   805.4    0.00       0    36.9
 343   17:20   36.9    27   10.6   151     16.4   805.3    0.00       0    36.9
 343   17:30   36.7    28   10.2   157     18.3   805.3    0.00       0    37.0
 343   17:40   36.6    28    9.5   154     15.4   805.5    0.00       0    37.0
 343   17:50   36.3    28   11.2   151     20.5   805.7    0.00       0    37.0
 343   18:00   36.4    28   11.0   151     17.6   805.7    0.00       0    37.0
 343   18:10   36.2    29   11.1   149     19.9   805.9    0.00       0    37.0
 343   18:20   36.0    29   10.2   152     16.4   806.1    0.00       0    37.0
 343   18:30   35.7    30   10.4   150     19.3   806.1    0.00       0    37.1
 343   18:40   35.4    30   10.1   150     17.0   806.0    0.00       0    37.1
 343   18:50   35.0    30    8.1   146     13.2   806.1    0.00       0    37.1
 343   19:00   34.7    30    4.3   144      9.6   806.6    0.00       0    37.1
 343   19:10   34.5    31    3.5   130     10.2   806.1    0.00       0    37.1
 343   19:20   34.2    31    2.3   102      6.3   806.2    0.00       0    37.1
 343   19:30   33.3    32    0.9     1      3.9   806.3    0.00       0    37.1
 343   19:40   32.3    34    1.0   177      2.6   806.2    0.00       0    37.1
 343   19:50   31.2    36    1.1   173      3.4   806.3    0.00       0    37.1
 343   20:00   30.4    38    1.2   143      3.6   806.3    0.00       0    37.1
 343   20:10   30.3    38    1.6   122      3.3   806.3    0.00       0    37.1
 343   20:20   31.4    36    1.3    90      2.3   806.2    0.00       0    37.0
 343   20:30   31.8    37    2.6   111      4.3   806.5    0.00       0    37.0
 343   20:40   31.9    37    1.6   107      3.7   806.5    0.00       0    37.0
 343   20:50   31.7    37    1.8   120      3.2   806.5    0.00       0    37.0
 343   21:00   31.2    38    1.0   134      2.8   806.6    0.00       0    37.0
 343   21:10   30.6    40    1.0   128      2.8   806.7    0.00       0    37.0
 343   21:20   31.1    39    1.9    93      3.4   806.6    0.00       0    37.0
 343   21:30   31.3    39    0.3   128      2.6   806.7    0.00       0    36.9
 343   21:40   30.0    42    0.7   267      1.5   807.0    0.00       0    36.9
 343   21:50   29.2    43    0.7   220      1.7   806.9    0.00       0    36.9
 343   22:00   29.0    42    0.1   224      0.8   806.7    0.00       0    36.9
 343   22:10   29.0    42    0.9   228      2.3   806.9    0.00       0    36.9
 343   22:20   28.2    45    0.7   183      1.6   806.9    0.00       0    36.9
 343   22:30   28.3    44    0.5   178      1.7   807.0    0.00       0    36.9
 343   22:40   28.1    45    0.4   182      1.7   807.2    0.00       0    36.8
 343   22:50   27.7    46    1.0   146      2.9   807.0    0.00       0    36.8
 343   23:00   27.8    45    0.9   152      2.1   806.9    0.00       0    36.8
 343   23:10   27.4    46    1.1   156      2.1   806.9    0.00       0    36.7
 343   23:20   26.7    48    1.1   194      2.6   807.0    0.00       0    36.7
 343   23:30   26.7    48    2.6   160      4.1   807.2    0.00       0    36.7
 343   23:40   26.8    47    3.2   152      4.9   807.1    0.00       0    36.7
 343   23:50   26.9    47    1.4   149      4.1   806.6    0.00       0    36.6
 344    0:00   27.0    47    1.5    92      3.8   807.0    0.00       0    36.6
 344    0:10   27.3    47    1.3   100      2.4   806.7    0.00       0    36.6
 344    0:20   27.8    46    2.0   153      4.2   806.8    0.00       0    36.6
 344    0:30   27.9    46    2.2   133      4.5   806.8    0.00       0    36.5
 344    0:40   27.9    46    1.5   135      3.6   806.9    0.00       0    36.5
 344    0:50   27.4    48    1.6   351      5.0   806.9    0.00       0    36.5
 344    1:00   24.9    51    1.0   262      3.3   806.9    0.00       0    36.5
 344    1:10   24.6    53    1.8   255      3.3   807.0    0.00       0    36.4
 344    1:20   24.5    54    1.4   202      3.3   807.2    0.00       0    36.5
 344    1:30   25.0    53    1.2   161      3.4   807.3    0.00       0    36.3
 344    1:40   25.1    53    0.4   160      1.2   807.3    0.00       0    36.3
 344    1:50   25.1    53    0.9   157      2.9   807.4    0.00       0    36.3
 344    2:00   25.3    54    4.3   154      5.5   807.4    0.00       0    36.3
 344    2:10   25.7    54    4.4   148      5.4   807.4    0.00       0    36.2
 344    2:20   26.0    54    3.1   145      5.0   807.5    0.00       0    36.2
 344    2:30   25.6    55    1.4   163      3.6   807.5    0.00       0    36.2
 344    2:40   25.2    56    0.9   163      2.6   807.5    0.00       0    36.2
 344    2:50   25.7    55    3.1   152      4.5   807.5    0.00       0    36.1
 344    3:00   26.4    54    2.8   136      4.2   807.5    0.00       0    36.1
 344    3:10   27.2    52    3.4   144      4.9   807.5    0.00       0    36.1
 344    3:20   28.3    51    2.4   146      3.9   807.6    0.00       0    36.1
 344    3:30   28.4    51    1.3    82      2.6   807.6    0.00       0    36.0
 344    3:40   27.7    53    0.8    85      2.0   807.5    0.00       0    36.0
 344    3:50   27.1    54    1.7   135      3.2   807.6    0.00       0    36.0

Return to Pioche, Nevada graphs page.


Western Regional Climate Center,wrcc@dri.edu